Dades meteomassalio
Diari Summary for Marc 5, 2017 Units:  English    Metric   Both
« Previous Day
Next Day »
Diari Semanal Mensual Anual Personalitzat
  Maxima: Minima: Mijana:
Temperatura: TemperatureC °F 4.1 °F 10 °F
Rosada: DewpointC °F 0.9 °F 5.8 °F
Humitat: Humidity % 60 % 75 %
Velocitat del vent: WindSpeedKMH mph 0.0 mph 6.9 mph
Racha vent: WindSpeedGustKMH mph - -
Vent:- - WNW
Pressio: PressurehPa in 1013.8 in -
Pluja: 0.0 in    
Historical Graphs
 
 
Tabular Data for Marc 5, 2017
Time Temperature Dew Point Pressure Wind Wind Speed Wind Gust Humidity Rainfall Rate (Hourly) solar Conditions
TemperatureC °F DewpointC °F PressurehPa in Calm     Humidity % HourlyPrecipMM in SolarRadiationWatts/m^2 W/m2 Conditions
00:04 4.8 °F 1.1 °F 1013.8 in Calm     77 % 0.0 in 0.0 W/m2 RA
00:09 4.9 °F 1.0 °F 1013.8 in Calm     76 % 0.0 in 0.0 W/m2 CLR
00:14 4.8 °F 0.9 °F 1014.1 in Calm     76 % 0.0 in 0.0 W/m2 CLR
00:19 4.8 °F 0.9 °F 1014.1 in Calm     76 % 0.0 in 0.0 W/m2 CLR
00:24 4.8 °F 1.3 °F 1014.1 in Calm     78 % 0.0 in 0.0 W/m2 CLR
00:29 4.6 °F 1.1 °F 1013.8 in Calm     78 % 0.0 in 0.0 W/m2 CLR
00:34 4.4 °F 0.9 °F 1014.1 in Calm     78 % 0.0 in 0.0 W/m2 CLR
00:39 4.4 °F 0.9 °F 1014.1 in Calm     78 % 0.0 in 0.0 W/m2 CLR
00:44 4.4 °F 1.1 °F 1014.1 in Calm     79 % 0.0 in 0.0 W/m2 CLR
00:49 4.3 °F 1.0 °F 1013.8 in Calm     79 % 0.0 in 0.0 W/m2 CLR
00:54 4.3 °F 1.1 °F 1013.8 in Calm     80 % 0.0 in 0.0 W/m2 CLR
00:59 4.3 °F 1.3 °F 1013.8 in Calm     81 % 0.0 in 0.0 W/m2 CLR
01:04 4.2 °F 1.2 °F 1014.1 in Calm     81 % 0.0 in 0.0 W/m2 CLR
01:09 4.2 °F 1.2 °F 1014.1 in Calm     81 % 0.0 in 0.0 W/m2 CLR
01:14 4.3 °F 1.5 °F 1013.8 in Calm     82 % 0.0 in 0.0 W/m2 CLR
01:19 4.2 °F 1.4 °F 1014.1 in Calm     82 % 0.0 in 0.0 W/m2 CLR
01:24 4.3 °F 1.3 °F 1014.1 in Calm     81 % 0.0 in 0.0 W/m2 CLR
01:29 4.3 °F 1.2 °F 1014.1 in Calm     80 % 0.0 in 0.0 W/m2 CLR
01:34 4.3 °F 1.3 °F 1014.4 in Calm     81 % 0.0 in 0.0 W/m2 CLR
01:39 4.3 °F 1.6 °F 1014.8 in Calm     82 % 0.0 in 0.0 W/m2 CLR
01:44 4.3 °F 1.5 °F 1014.8 in Calm     82 % 0.0 in 0.0 W/m2 CLR
01:49 4.2 °F 1.6 °F 1014.8 in Calm     83 % 0.0 in 0.0 W/m2 CLR
01:54 4.2 °F 1.6 °F 1014.8 in Calm     83 % 0.0 in 0.0 W/m2 CLR
01:59 4.2 °F 1.6 °F 1015.1 in Calm     83 % 0.0 in 0.0 W/m2 CLR
02:04 4.3 °F 1.7 °F 1015.1 in Calm     83 % 0.0 in 0.0 W/m2 CLR
02:09 4.3 °F 1.7 °F 1015.1 in Calm     83 % 0.0 in 0.0 W/m2 CLR
02:14 4.2 °F 1.6 °F 1015.1 in Calm     83 % 0.0 in 0.0 W/m2 CLR
02:19 4.1 °F 1.7 °F 1015.1 in Calm     84 % 0.0 in 0.0 W/m2 CLR
02:24 4.1 °F 1.7 °F 1015.1 in Calm     84 % 0.0 in 0.0 W/m2 CLR
02:29 4.2 °F 1.8 °F 1015.1 in Calm     84 % 0.0 in 0.0 W/m2 CLR
02:34 4.4 °F 2.1 °F 1015.1 in Calm     85 % 0.0 in 0.0 W/m2 CLR
02:39 4.4 °F 2.0 °F 1015.1 in Calm     84 % 0.0 in 0.0 W/m2 CLR
02:44 4.4 °F 1.9 °F 1015.1 in Calm     84 % 0.0 in 0.0 W/m2 CLR
02:45 4.4 °F 1.9 °F 1015.1 in Calm     84 % 0.0 in 0.0 W/m2 CLR
02:50 4.4 °F 1.9 °F 1015.1 in Calm     84 % 0.0 in 0.0 W/m2 CLR
02:55 4.4 °F 1.9 °F 1015.1 in Calm     84 % 0.0 in 0.0 W/m2 CLR
03:00 4.4 °F 1.9 °F 1015.1 in Calm     84 % 0.0 in 0.0 W/m2 CLR
03:05 4.4 °F 2.0 °F 1015.1 in Calm     84 % 0.0 in 0.0 W/m2 CLR
03:10 4.5 °F 2.2 °F 1015.1 in Calm     85 % 0.0 in 0.0 W/m2 CLR
03:15 4.6 °F 2.1 °F 1014.8 in Calm     84 % 0.0 in 0.0 W/m2 CLR
03:20 4.6 °F 2.1 °F 1014.8 in Calm     84 % 0.0 in 0.0 W/m2 CLR
03:25 4.7 °F 2.2 °F 1014.8 in Calm     84 % 0.0 in 0.0 W/m2 CLR
03:30 4.9 °F 2.1 °F 1014.8 in Calm     82 % 0.0 in 0.0 W/m2 CLR
03:35 5.0 °F 2.2 °F 1014.8 in Calm     82 % 0.0 in 0.0 W/m2 CLR
03:40 5.2 °F 2.2 °F 1014.8 in Calm     81 % 0.0 in 0.0 W/m2 CLR
03:45 5.3 °F 2.3 °F 1014.8 in Calm     81 % 0.0 in 0.0 W/m2 CLR
03:50 5.2 °F 2.2 °F 1014.8 in Calm     81 % 0.0 in 0.0 W/m2 CLR
03:55 5.3 °F 2.2 °F 1014.8 in Calm     80 % 0.0 in 0.0 W/m2 CLR
04:00 5.7 °F 2.3 °F 1014.4 in Calm     79 % 0.0 in 0.0 W/m2 CLR
04:05 5.7 °F 2.2 °F 1014.4 in Calm     78 % 0.0 in 0.0 W/m2 CLR
04:10 5.5 °F 2.2 °F 1014.1 in Calm     79 % 0.0 in 0.0 W/m2 CLR
04:15 5.2 °F 2.0 °F 1014.8 in Calm     80 % 0.0 in 0.0 W/m2 CLR
04:20 4.9 °F 1.9 °F 1014.8 in Calm     81 % 0.0 in 0.0 W/m2 CLR
04:25 5.0 °F 2.2 °F 1015.1 in Calm     82 % 0.0 in 0.0 W/m2 CLR
04:30 4.9 °F 2.1 °F 1015.1 in Calm     82 % 0.0 in 0.0 W/m2 CLR
04:35 4.9 °F 2.1 °F 1015.1 in Calm     82 % 0.0 in 0.0 W/m2 CLR
04:40 5.2 °F 2.2 °F 1014.8 in Calm     81 % 0.0 in 0.0 W/m2 CLR
04:45 5.8 °F 2.4 °F 1014.8 in Calm     79 % 0.0 in 0.0 W/m2 CLR
04:50 6.3 °F 2.6 °F 1014.8 in Calm     77 % 0.0 in 0.0 W/m2 CLR
04:55 6.6 °F 2.7 °F 1014.8 in Calm     76 % 0.0 in 0.0 W/m2 CLR
05:00 6.6 °F 2.5 °F 1014.8 in Calm     75 % 0.0 in 0.0 W/m2 CLR
05:05 6.7 °F 2.6 °F 1014.8 in Calm     75 % 0.0 in 0.0 W/m2 CLR
05:10 6.8 °F 2.5 °F 1014.8 in Calm     74 % 0.0 in 0.0 W/m2 CLR
05:15 6.9 °F 2.6 °F 1014.8 in Calm     74 % 0.0 in 0.0 W/m2 CLR
05:20 6.6 °F 2.5 °F 1015.1 in Calm     75 % 0.0 in 0.0 W/m2 CLR
05:25 6.2 °F 2.1 °F 1015.1 in Calm     75 % 0.0 in 0.0 W/m2 CLR
05:30 5.8 °F 2.1 °F 1015.1 in Calm     77 % 0.0 in 0.0 W/m2 CLR
05:35 5.4 °F 1.9 °F 1015.5 in Calm     78 % 0.0 in 0.0 W/m2 CLR
05:40 5.2 °F 1.9 °F 1015.1 in Calm     79 % 0.0 in 0.0 W/m2 CLR
05:45 4.9 °F 1.7 °F 1015.1 in Calm     80 % 0.0 in 0.0 W/m2 CLR
05:50 4.7 °F 1.8 °F 1015.1 in Calm     82 % 0.0 in 0.0 W/m2 CLR
05:55 4.7 °F 1.9 °F 1015.1 in Calm     82 % 0.0 in 0.0 W/m2 CLR
06:00 4.7 °F 1.9 °F 1015.1 in Calm     82 % 0.0 in 0.0 W/m2 CLR
06:05 4.8 °F 1.9 °F 1015.5 in Calm     82 % 0.0 in 0.0 W/m2 CLR
06:10 4.7 °F 1.9 °F 1015.5 in Calm     82 % 0.0 in 0.0 W/m2 CLR
06:15 4.7 °F 2.0 °F 1015.8 in Calm     83 % 0.0 in 0.0 W/m2 CLR
06:20 4.6 °F 1.9 °F 1015.8 in Calm     83 % 0.0 in 0.0 W/m2 CLR
06:25 4.6 °F 2.1 °F 1015.8 in Calm     84 % 0.0 in 0.0 W/m2 CLR
06:30 4.6 °F 2.1 °F 1015.8 in Calm     84 % 0.0 in 0.0 W/m2 CLR
06:35 4.6 °F 2.1 °F 1016.1 in Calm     84 % 0.0 in 0.0 W/m2 CLR
06:40 4.6 °F 2.1 °F 1016.1 in Calm     84 % 0.0 in 0.0 W/m2 CLR
06:45 4.7 °F 2.2 °F 1016.1 in Calm     84 % 0.0 in 0.0 W/m2 CLR
06:50 4.6 °F 2.1 °F 1016.1 in Calm     84 % 0.0 in 0.0 W/m2 CLR
06:55 4.6 °F 2.1 °F 1016.1 in Calm     84 % 0.0 in 0.0 W/m2 CLR
07:00 4.6 °F 2.3 °F 1016.5 in Calm     85 % 0.0 in 0.0 W/m2 CLR
07:05 4.6 °F 2.3 °F 1016.5 in Calm     85 % 0.0 in 0.0 W/m2 CLR
07:06 4.6 °F 2.3 °F 1016.5 in Calm     85 % 0.0 in 0.0 W/m2 CLR
07:11 4.7 °F 2.4 °F 1016.5 in Calm     85 % 0.0 in 0.0 W/m2 CLR
07:16 4.8 °F 2.4 °F 1016.5 in Calm     85 % 0.0 in 0.0 W/m2 CLR
07:21 4.8 °F 2.4 °F 1016.5 in Calm     85 % 0.0 in 0.0 W/m2 OVC
07:26 4.8 °F 2.5 °F 1016.8 in Calm     85 % 0.0 in 5.0 W/m2 OVC
07:31 4.9 °F 2.6 °F 1016.5 in Calm     85 % 0.0 in 12.0 W/m2 OVC
07:36 4.8 °F 2.4 °F 1016.5 in Calm     85 % 0.0 in 16.0 W/m2 BKN
07:41 4.9 °F 2.6 °F 1016.5 in Calm     85 % 0.0 in 21.0 W/m2 BKN
07:46 5.1 °F 2.7 °F 1016.5 in Calm     85 % 0.0 in 32.0 W/m2 BKN
07:51 5.1 °F 2.8 °F 1016.5 in Calm     85 % 0.0 in 49.0 W/m2 BKN
07:56 5.2 °F 2.8 °F 1016.8 in Calm     85 % 0.0 in 63.0 W/m2 SCT
08:01 5.3 °F 2.9 °F 1016.8 in Calm     85 % 0.0 in 56.0 W/m2 SCT
08:06 5.3 °F 3.0 °F 1016.8 in Calm     85 % 0.0 in 65.0 W/m2 SCT
08:11 5.3 °F 2.8 °F 1016.8 in Calm     84 % 0.0 in 63.0 W/m2 SCT
08:16 5.5 °F 3.0 °F 1016.8 in Calm     84 % 0.0 in 63.0 W/m2 SCT
08:21 5.7 °F 3.2 °F 1016.8 in Calm     84 % 0.0 in 76.0 W/m2 FEW
08:26 5.8 °F 3.5 °F 1016.8 in Calm     85 % 0.0 in 105.0 W/m2 CLR
08:31 5.9 °F 3.4 °F 1016.8 in Calm     84 % 0.0 in 118.0 W/m2 CLR
08:36 6.1 °F 3.4 °F 1016.8 in Calm     83 % 0.0 in 128.0 W/m2 CLR
08:41 6.3 °F 3.7 °F 1017.2 in Calm     83 % 0.0 in 139.0 W/m2 CLR
08:46 6.6 °F 3.9 °F 1017.2 in Calm     83 % 0.0 in 142.0 W/m2 CLR
08:51 6.9 °F 4.1 °F 1016.8 in Calm     82 % 0.0 in 149.0 W/m2 CLR
08:56 7.2 °F 4.3 °F 1017.2 in Calm     82 % 0.0 in 185.0 W/m2 CLR
09:01 7.4 °F 4.0 °F 1017.2 in Calm     79 % 0.0 in 144.0 W/m2 CLR
09:06 7.6 °F 3.8 °F 1017.5 in Calm     77 % 0.0 in 141.0 W/m2 CLR
09:11 7.9 °F 4.1 °F 1017.5 in Calm     77 % 0.0 in 169.0 W/m2 CLR
09:17 8.1 °F 4.1 °F 1017.2 in Calm     76 % 0.0 in 199.0 W/m2 CLR
09:22 8.2 °F 3.8 °F 1017.2 in Calm     74 % 0.0 in 174.0 W/m2 CLR
09:26 8.4 °F 4.1 °F 1017.2 in Calm     74 % 0.0 in 172.0 W/m2 CLR
09:32 8.7 °F 4.1 °F 1017.2 in Calm     73 % 0.0 in 207.0 W/m2 CLR
09:37 9.0 °F 4.4 °F 1017.5 in Calm     73 % 0.0 in 257.0 W/m2 CLR
09:42 9.3 °F 4.5 °F 1017.5 in Calm     72 % 0.0 in 281.0 W/m2 CLR
09:47 9.7 °F 4.8 °F 1017.5 in Calm     72 % 0.0 in 357.0 W/m2 CLR
09:52 10.2 °F 5.2 °F 1017.5 in Calm     71 % 0.0 in 376.0 W/m2 CLR
09:57 10.7 °F 5.0 °F 1017.5 in Calm     68 % 0.0 in 248.0 W/m2 CLR
10:02 10.8 °F 5.4 °F 1017.2 in Calm     69 % 0.0 in 371.0 W/m2 CLR
10:07 11.1 °F 5.6 °F 1017.2 in Calm     69 % 0.0 in 394.0 W/m2 CLR
10:12 11.4 °F 4.9 °F 1017.2 in Calm     64 % 0.0 in 425.0 W/m2 CLR
10:17 11.8 °F 5.8 °F 1017.2 in Calm     67 % 0.0 in 350.0 W/m2 CLR
10:22 12.0 °F 5.2 °F 1017.2 in NNW 5.6 mph 5.6 mph 63 % 0.0 in 353.0 W/m2 CLR
10:27 12.3 °F 5.0 °F 1016.8 in West 5.6 mph 5.6 mph 61 % 0.0 in 422.0 W/m2 CLR
10:32 12.5 °F 4.9 °F 1016.8 in SW 16.7 mph 16.7 mph 60 % 0.0 in 490.0 W/m2 CLR
10:37 12.7 °F 5.6 °F 1016.8 in WNW 18.5 mph 18.5 mph 62 % 0.0 in 489.0 W/m2 CLR
10:42 12.7 °F 5.4 °F 1017.2 in WNW 18.5 mph 18.5 mph 61 % 0.0 in 424.0 W/m2 CLR
10:47 12.8 °F 5.7 °F 1017.5 in NW 20.4 mph 20.4 mph 62 % 0.0 in 415.0 W/m2 CLR
10:52 12.8 °F 5.4 °F 1017.2 in NW 24.1 mph 24.1 mph 61 % 0.0 in 587.0 W/m2 CLR
10:57 12.9 °F 5.6 °F 1016.8 in WNW 19.3 mph 19.3 mph 61 % 0.0 in 376.0 W/m2 CLR
11:02 13.0 °F 5.9 °F 1016.8 in WNW 24.1 mph 24.1 mph 62 % 0.0 in 390.0 W/m2 CLR
11:07 13.0 °F 6.1 °F 1016.8 in WNW 31.5 mph 31.5 mph 63 % 0.0 in 406.0 W/m2 CLR
11:12 13.1 °F 6.6 °F 1016.8 in NW 22.2 mph 22.2 mph 65 % 0.0 in 385.0 W/m2 CLR
11:17 13.1 °F 6.2 °F 1016.8 in WNW 31.5 mph 31.5 mph 63 % 0.0 in 587.0 W/m2 CLR
11:22 13.1 °F 6.6 °F 1017.2 in WNW 27.8 mph 27.8 mph 65 % 0.0 in 529.0 W/m2 CLR
11:27 13.1 °F 6.4 °F 1017.2 in NW 25.9 mph 25.9 mph 64 % 0.0 in 425.0 W/m2 CLR
11:32 13.2 °F 7.0 °F 1017.2 in WNW 18.5 mph 18.5 mph 66 % 0.0 in 425.0 W/m2 CLR
11:37 13.3 °F 6.9 °F 1017.2 in WNW 29.6 mph 29.6 mph 65 % 0.0 in 276.0 W/m2 CLR
11:42 13.6 °F 6.9 °F 1017.5 in NW 16.7 mph 16.7 mph 64 % 0.0 in 638.0 W/m2 CLR
11:47 13.8 °F 7.1 °F 1017.5 in NW 35.2 mph 35.2 mph 64 % 0.0 in 506.0 W/m2 CLR
11:52 14.1 °F 7.6 °F 1017.5 in WNW 24.1 mph 24.1 mph 65 % 0.0 in 554.0 W/m2 CLR
11:57 14.3 °F 7.8 °F 1017.5 in NW 24.1 mph 24.1 mph 65 % 0.0 in 763.0 W/m2 CLR
12:02 14.6 °F 7.8 °F 1017.5 in NW 24.1 mph 24.1 mph 64 % 0.0 in 707.0 W/m2 CLR
12:07 14.7 °F 7.7 °F 1017.5 in NW 29.6 mph 29.6 mph 63 % 0.0 in 475.0 W/m2 CLR
12:12 14.4 °F 7.4 °F 1017.8 in North 27.8 mph 27.8 mph 63 % 0.0 in 591.0 W/m2 CLR
12:17 14.4 °F 7.7 °F 1017.8 in NW 27.8 mph 27.8 mph 64 % 0.0 in 670.0 W/m2 CLR
12:22 14.4 °F 7.2 °F 1017.5 in NW 27.8 mph 27.8 mph 62 % 0.0 in 392.0 W/m2 CLR
12:28 14.6 °F 8.1 °F 1017.5 in NW 14.8 mph 14.8 mph 65 % 0.0 in 404.0 W/m2 CLR
12:33 14.5 °F 7.8 °F 1017.5 in North 24.1 mph 24.1 mph 64 % 0.0 in 424.0 W/m2 CLR
12:38 14.4 °F 7.7 °F 1017.5 in NNW 18.5 mph 19.5 mph 64 % 0.0 in 404.0 W/m2 CLR
12:43 14.3 °F 7.6 °F 1017.5 in NNW 18.5 mph 18.5 mph 64 % 0.0 in 420.0 W/m2 CLR
12:48 14.4 °F 8.2 °F 1017.5 in NNW 14.8 mph 14.8 mph 66 % 0.0 in 533.0 W/m2 CLR
12:53 14.4 °F 8.2 °F 1017.8 in NW 18.5 mph 18.5 mph 66 % 0.0 in 462.0 W/m2 CLR
12:58 14.6 °F 8.5 °F 1017.8 in NNW 14.8 mph 14.8 mph 67 % 0.0 in 701.0 W/m2 CLR
13:03 14.8 °F 8.3 °F 1017.8 in NNE 22.2 mph 22.2 mph 65 % 0.0 in 554.0 W/m2 CLR
13:08 14.7 °F 8.2 °F 1017.5 in North 18.5 mph 18.5 mph 65 % 0.0 in 478.0 W/m2 CLR
13:13 14.6 °F 8.1 °F 1017.5 in NW 25.9 mph 25.9 mph 65 % 0.0 in 489.0 W/m2 CLR
13:18 14.5 °F 7.8 °F 1017.5 in NW 18.5 mph 18.5 mph 64 % 0.0 in 469.0 W/m2 CLR
13:23 14.4 °F 7.9 °F 1017.5 in NNW 20.9 mph 20.9 mph 65 % 0.0 in 334.0 W/m2 CLR
13:28 14.4 °F 8.1 °F 1017.8 in NNW 18.5 mph 18.5 mph 66 % 0.0 in 577.0 W/m2 CLR
13:33 14.6 °F 8.1 °F 1018.2 in NNW 24.1 mph 24.1 mph 65 % 0.0 in 761.0 W/m2 CLR
13:38 14.7 °F 8.4 °F 1018.2 in North 24.1 mph 24.1 mph 66 % 0.0 in 835.0 W/m2 CLR
13:43 15.0 °F 8.7 °F 1018.2 in NNW 20.4 mph 20.4 mph 66 % 0.0 in 485.0 W/m2 CLR
13:48 14.8 °F 8.6 °F 1018.2 in NNW 18.5 mph 18.5 mph 66 % 0.0 in 450.0 W/m2 CLR
13:53 14.7 °F 8.4 °F 1018.2 in NW 18.5 mph 18.5 mph 66 % 0.0 in 411.0 W/m2 CLR
13:58 14.7 °F 8.4 °F 1018.2 in NW 18.5 mph 18.5 mph 66 % 0.0 in 404.0 W/m2 CLR
14:03 14.6 °F 8.3 °F 1018.2 in NNW 24.1 mph 24.1 mph 66 % 0.0 in 325.0 W/m2 CLR
14:08 14.5 °F 8.4 °F 1018.2 in NW 22.5 mph 22.5 mph 67 % 0.0 in 320.0 W/m2 CLR
14:13 14.3 °F 8.3 °F 1017.8 in NW 24.1 mph 24.1 mph 67 % 0.0 in 311.0 W/m2 CLR
14:18 14.4 °F 8.6 °F 1017.8 in WNW 22.5 mph 22.5 mph 68 % 0.0 in 380.0 W/m2 CLR
14:23 14.4 °F 8.3 °F 1017.8 in NW 22.2 mph 22.2 mph 67 % 0.0 in 279.0 W/m2 CLR
14:28 14.4 °F 8.8 °F 1017.8 in West 18.5 mph 18.5 mph 69 % 0.0 in 297.0 W/m2 CLR
14:33 14.4 °F 8.4 °F 1017.8 in NNW 24.1 mph 24.1 mph 67 % 0.0 in 304.0 W/m2 CLR
14:38 14.6 °F 8.8 °F 1017.5 in West 20.9 mph 20.9 mph 68 % 0.0 in 512.0 W/m2 CLR
14:43 14.8 °F 8.6 °F 1017.2 in West 22.2 mph 22.2 mph 66 % 0.0 in 338.0 W/m2 CLR
14:48 15.2 °F 8.9 °F 1016.8 in WNW 31.5 mph 31.5 mph 66 % 0.0 in 536.0 W/m2 CLR
14:53 15.6 °F 9.0 °F 1017.2 in WNW 33.3 mph 33.3 mph 65 % 0.0 in 691.0 W/m2 CLR
14:58 15.6 °F 8.8 °F 1017.2 in NW 33.3 mph 33.3 mph 64 % 0.0 in 406.0 W/m2 CLR
15:03 15.5 °F 8.9 °F 1016.8 in WNW 37.0 mph 37.0 mph 65 % 0.0 in 406.0 W/m2 CLR
15:08 15.5 °F 8.7 °F 1017.2 in WNW 37.0 mph 37.0 mph 64 % 0.0 in 497.0 W/m2 CLR
15:13 15.3 °F 8.8 °F 1017.2 in WNW 35.2 mph 35.2 mph 65 % 0.0 in 508.0 W/m2 CLR
15:18 15.6 °F 9.0 °F 1016.8 in NNW 29.6 mph 29.6 mph 65 % 0.0 in 401.0 W/m2 CLR
15:23 15.8 °F 9.0 °F 1017.2 in WNW 24.1 mph 24.1 mph 64 % 0.0 in 371.0 W/m2 CLR
15:29 15.8 °F 9.0 °F 1017.2 in WNW 27.8 mph 27.8 mph 64 % 0.0 in 504.0 W/m2 CLR
15:34 15.8 °F 9.0 °F 1017.2 in NW 31.5 mph 31.5 mph 64 % 0.0 in 471.0 W/m2 CLR
15:39 15.6 °F 9.0 °F 1017.2 in WNW 24.1 mph 24.1 mph 65 % 0.0 in 302.0 W/m2 CLR
15:44 15.5 °F 8.9 °F 1017.2 in NNW 27.8 mph 27.8 mph 65 % 0.0 in 392.0 W/m2 CLR
15:49 15.5 °F 8.9 °F 1017.2 in WNW 27.8 mph 27.8 mph 65 % 0.0 in 427.0 W/m2 CLR
15:54 15.7 °F 9.4 °F 1017.2 in NW 22.2 mph 22.2 mph 66 % 0.0 in 563.0 W/m2 CLR
15:59 15.7 °F 9.2 °F 1016.8 in WNW 16.7 mph 16.7 mph 65 % 0.0 in 322.0 W/m2 CLR
16:04 15.6 °F 8.8 °F 1016.8 in WNW 22.5 mph 22.5 mph 64 % 0.0 in 229.0 W/m2 CLR
16:09 15.6 °F 9.1 °F 1016.8 in West 18.5 mph 18.5 mph 65 % 0.0 in 241.0 W/m2 CLR
16:14 15.7 °F 9.2 °F 1016.8 in West 18.5 mph 18.5 mph 65 % 0.0 in 255.0 W/m2 CLR
16:19 15.8 °F 8.8 °F 1016.5 in WSW 37.0 mph 37.0 mph 63 % 0.0 in 229.0 W/m2 CLR
16:24 15.8 °F 9.1 °F 1016.8 in West 27.8 mph 27.8 mph 64 % 0.0 in 209.0 W/m2 CLR
16:29 15.9 °F 9.6 °F 1017.2 in NW 20.4 mph 20.4 mph 66 % 0.0 in 155.0 W/m2 CLR
16:34 15.9 °F 9.3 °F 1017.2 in NW 18.5 mph 18.5 mph 65 % 0.0 in 169.0 W/m2 CLR
16:39 15.8 °F 9.3 °F 1017.5 in NNW 22.2 mph 22.2 mph 65 % 0.0 in 197.0 W/m2 CLR
16:44 15.9 °F 9.1 °F 1017.5 in North 18.5 mph 18.5 mph 64 % 0.0 in 246.0 W/m2 CLR
16:49 16.0 °F 9.4 °F 1017.2 in NW 20.4 mph 20.4 mph 65 % 0.0 in 343.0 W/m2 CLR
16:54 16.0 °F 9.4 °F 1017.5 in NW 14.8 mph 14.8 mph 65 % 0.0 in 162.0 W/m2 CLR
16:59 15.8 °F 9.3 °F 1017.2 in NNW 20.4 mph 20.4 mph 65 % 0.0 in 132.0 W/m2 CLR
17:04 15.7 °F 9.4 °F 1017.5 in NW 18.5 mph 18.5 mph 66 % 0.0 in 104.0 W/m2 CLR
17:09 15.6 °F 9.3 °F 1017.5 in North 20.4 mph 20.4 mph 66 % 0.0 in 91.0 W/m2 CLR
17:14 15.4 °F 9.3 °F 1017.8 in North 14.8 mph 14.8 mph 67 % 0.0 in 83.0 W/m2 CLR
17:19 15.2 °F 9.3 °F 1017.8 in NNE 14.8 mph 14.8 mph 68 % 0.0 in 74.0 W/m2 FEW
17:24 15.1 °F 9.4 °F 1017.8 in NNE 11.1 mph 11.1 mph 69 % 0.0 in 105.0 W/m2 FEW
17:29 14.9 °F 9.3 °F 1017.8 in North 11.1 mph 11.1 mph 69 % 0.0 in 146.0 W/m2 CLR
17:34 15.0 °F 9.8 °F 1017.5 in Calm     71 % 0.0 in 153.0 W/m2 CLR
17:39 15.0 °F 9.3 °F 1017.5 in NNW 7.4 mph 7.4 mph 69 % 0.0 in 86.0 W/m2 CLR
17:44 14.9 °F 9.3 °F 1017.5 in WNW 3.2 mph 3.2 mph 69 % 0.0 in 86.0 W/m2 CLR
17:49 14.9 °F 9.4 °F 1017.8 in WNW 6.4 mph 6.4 mph 70 % 0.0 in 105.0 W/m2 CLR
17:54 14.9 °F 9.2 °F 1017.8 in WNW 7.4 mph 7.4 mph 69 % 0.0 in 86.0 W/m2 CLR
17:59 14.8 °F 9.2 °F 1017.8 in West 7.4 mph 7.4 mph 69 % 0.0 in 74.0 W/m2 FEW
18:04 14.8 °F 9.2 °F 1017.8 in WNW 5.6 mph 5.6 mph 69 % 0.0 in 63.0 W/m2 SCT
18:09 14.7 °F 9.1 °F 1017.8 in WNW 6.4 mph 6.4 mph 69 % 0.0 in 63.0 W/m2 SCT
18:14 14.6 °F 9.2 °F 1017.8 in Calm     70 % 0.0 in 49.0 W/m2 SCT
18:19 14.6 °F 9.3 °F 1017.8 in Calm     71 % 0.0 in 32.0 W/m2 BKN
18:24 14.4 °F 9.2 °F 1018.2 in Calm     71 % 0.0 in 21.0 W/m2 BKN
18:29 14.4 °F 9.2 °F 1018.5 in Calm     71 % 0.0 in 16.0 W/m2 BKN
18:34 14.3 °F 9.2 °F 1018.5 in Calm     71 % 0.0 in 12.0 W/m2 BKN
18:39 14.3 °F 9.2 °F 1018.5 in Calm     71 % 0.0 in 9.0 W/m2 BKN
18:44 14.3 °F 9.3 °F 1018.5 in Calm     72 % 0.0 in 7.0 W/m2 BKN
18:49 14.2 °F 9.2 °F 1018.5 in Calm     72 % 0.0 in 5.0 W/m2 OVC
18:54 14.1 °F 9.1 °F 1018.8 in Calm     72 % 0.0 in 0.0 W/m2 OVC
18:59 14.0 °F 9.1 °F 1018.8 in Calm     72 % 0.0 in 0.0 W/m2 OVC
19:04 13.8 °F 8.9 °F 1018.8 in Calm     72 % 0.0 in 0.0 W/m2 CLR
19:09 13.7 °F 8.9 °F 1019.2 in Calm     73 % 0.0 in 0.0 W/m2 CLR
19:14 13.6 °F 8.8 °F 1019.2 in Calm     73 % 0.0 in 0.0 W/m2 CLR
19:19 13.5 °F 8.9 °F 1019.2 in Calm     74 % 0.0 in 0.0 W/m2 CLR
19:24 13.4 °F 8.8 °F 1019.2 in Calm     74 % 0.0 in 0.0 W/m2 CLR
19:29 13.3 °F 8.9 °F 1019.2 in Calm     75 % 0.0 in 0.0 W/m2 CLR
19:34 13.2 °F 8.9 °F 1019.5 in Calm     75 % 0.0 in 0.0 W/m2 CLR
19:39 13.2 °F 8.8 °F 1019.5 in Calm     75 % 0.0 in 0.0 W/m2 CLR
19:44 13.2 °F 9.0 °F 1019.5 in Calm     76 % 0.0 in 0.0 W/m2 CLR
19:49 12.9 °F 9.0 °F 1019.5 in Calm     77 % 0.0 in 0.0 W/m2 CLR
19:54 12.7 °F 9.0 °F 1019.5 in Calm     78 % 0.0 in 0.0 W/m2 CLR
19:59 12.6 °F 9.0 °F 1019.9 in Calm     79 % 0.0 in 0.0 W/m2 CLR
20:04 12.4 °F 8.9 °F 1019.9 in Calm     79 % 0.0 in 0.0 W/m2 CLR
20:09 12.4 °F 9.1 °F 1020.2 in Calm     80 % 0.0 in 0.0 W/m2 CLR
20:14 12.4 °F 8.9 °F 1020.2 in Calm     79 % 0.0 in 0.0 W/m2 CLR
20:19 12.6 °F 9.1 °F 1020.2 in Calm     79 % 0.0 in 0.0 W/m2 CLR
20:24 12.7 °F 8.9 °F 1019.9 in Calm     78 % 0.0 in 0.0 W/m2 CLR
20:29 12.6 °F 8.9 °F 1020.2 in Calm     78 % 0.0 in 0.0 W/m2 CLR
20:34 12.3 °F 8.8 °F 1020.2 in Calm     79 % 0.0 in 0.0 W/m2 CLR
20:39 12.2 °F 8.9 °F 1020.2 in Calm     80 % 0.0 in 0.0 W/m2 CLR
20:44 12.0 °F 8.8 °F 1020.2 in Calm     81 % 0.0 in 0.0 W/m2 CLR
20:49 11.8 °F 8.8 °F 1020.2 in Calm     82 % 0.0 in 0.0 W/m2 CLR
20:54 11.8 °F 8.8 °F 1020.2 in Calm     82 % 0.0 in 0.0 W/m2 CLR
20:59 11.8 °F 8.8 °F 1020.2 in Calm     82 % 0.0 in 0.0 W/m2 CLR
21:04 11.8 °F 8.8 °F 1020.5 in Calm     82 % 0.0 in 0.0 W/m2 CLR
21:09 11.8 °F 8.8 °F 1020.2 in Calm     82 % 0.0 in 0.0 W/m2 CLR
21:14 11.9 °F 8.9 °F 1020.5 in West 5.6 mph 5.6 mph 82 % 0.0 in 0.0 W/m2 CLR
21:19 12.1 °F 8.9 °F 1020.5 in Calm     81 % 0.0 in 0.0 W/m2 CLR
21:24 12.1 °F 8.9 °F 1020.5 in WSW 3.7 mph   81 % 0.0 in 0.0 W/m2 CLR
21:30 12.0 °F 8.8 °F 1020.5 in Calm     81 % 0.0 in 0.0 W/m2 CLR
21:35 11.9 °F 8.7 °F 1020.5 in Calm     81 % 0.0 in 0.0 W/m2 CLR
21:40 11.7 °F 8.7 °F 1020.5 in Calm     82 % 0.0 in 0.0 W/m2 CLR
21:45 11.7 °F 8.7 °F 1020.5 in Calm     82 % 0.0 in 0.0 W/m2 CLR
21:50 11.9 °F 8.9 °F 1020.5 in Calm     82 % 0.0 in 0.0 W/m2 CLR
21:55 11.8 °F 8.7 °F 1020.5 in Calm     81 % 0.0 in 0.0 W/m2 CLR
22:00 11.6 °F 8.7 °F 1020.5 in Calm     82 % 0.0 in 0.0 W/m2 CLR
22:05 11.5 °F 8.7 °F 1020.5 in Calm     83 % 0.0 in 0.0 W/m2 CLR
22:10 11.4 °F 8.6 °F 1020.5 in Calm     83 % 0.0 in 0.0 W/m2 CLR
22:15 11.3 °F 8.7 °F 1020.9 in Calm     84 % 0.0 in 0.0 W/m2 CLR
22:20 11.1 °F 8.5 °F 1020.9 in Calm     84 % 0.0 in 0.0 W/m2 CLR
22:25 10.9 °F 8.3 °F 1020.9 in Calm     84 % 0.0 in 0.0 W/m2 CLR
22:30 10.9 °F 8.4 °F 1020.9 in Calm     85 % 0.0 in 0.0 W/m2 CLR
22:35 10.7 °F 8.3 °F 1020.9 in Calm     85 % 0.0 in 0.0 W/m2 CLR
22:40 10.5 °F 8.1 °F 1020.9 in Calm     85 % 0.0 in 0.0 W/m2 CLR
22:45 10.3 °F 8.1 °F 1020.9 in Calm     86 % 0.0 in 0.0 W/m2 CLR
22:50 10.3 °F 8.3 °F 1020.9 in Calm     87 % 0.0 in 0.0 W/m2 CLR
22:55 10.5 °F 8.3 °F 1020.9 in Calm     86 % 0.0 in 0.0 W/m2 CLR
23:00 10.5 °F 8.3 °F 1020.9 in Calm     86 % 0.0 in 0.0 W/m2 CLR
23:05 10.3 °F 8.1 °F 1020.9 in Calm     86 % 0.0 in 0.0 W/m2 CLR
23:10 10.2 °F 8.2 °F 1020.9 in Calm     87 % 0.0 in 0.0 W/m2 CLR
23:15 10.3 °F 8.3 °F 1020.9 in Calm     87 % 0.0 in 0.0 W/m2 CLR
23:20 10.4 °F 8.2 °F 1020.9 in Calm     86 % 0.0 in 0.0 W/m2 CLR
23:25 10.4 °F 8.2 °F 1020.9 in Calm     86 % 0.0 in 0.0 W/m2 CLR
23:30 10.3 °F 7.9 °F 1020.9 in Calm     85 % 0.0 in 0.0 W/m2 CLR
23:35 10.1 °F 7.9 °F 1020.9 in Calm     86 % 0.0 in 0.0 W/m2 CLR
23:40 10.0 °F 7.9 °F 1020.9 in Calm     87 % 0.0 in 0.0 W/m2 CLR
23:45 10.0 °F 7.9 °F 1020.9 in Calm     87 % 0.0 in 0.0 W/m2 CLR
23:50 9.8 °F 7.8 °F 1020.9 in Calm     87 % 0.0 in 0.0 W/m2 CLR
23:55 9.8 °F 7.9 °F 1020.5 in Calm     88 % 0.0 in 0.0 W/m2 CLR
Lo Temps de Massalio
Compliments of Weather Underground - 1.25 mb